Flight Track Log - Related Links

Times and Time Zones

All times are in EDT time to prevent confusion due to time zone crossing. See the AAL2007 flight status page for this flight to view local times or setup timezone preferences in your user account.

Time Position Orientation Groundspeed Altitude Reporting Facility
EDT Latitude Longitude Course Direction KTS MPH feet Rate Location/Type
Wed 06:12:09 PM 41.9833 -87.8167 194° South 209 241 2,700  Level Chicago TRACON
Wed 06:13:00 PM 41.7054 -88.1832 201° Southwest  Level Estimated
Wed 06:13:37 PM 41.9097 -87.7606 150° Southeast 266 306 4,700  Level Chicago Center
Wed 06:14:00 PM 41.6132 -88.2748 197° South  Level Estimated
Wed 06:14:39 PM 41.8361 -87.7525 175° South 269 310 5,000  Level Chicago Center
Wed 06:15:00 PM 41.5209 -88.3661 194° South  Level Estimated
Wed 06:15:42 PM 41.7469 -87.7408 174° South 268 308 5,400  Level Chicago Center
Wed 06:16:00 PM 41.4286 -88.4573 207° Southwest  Level Estimated
Wed 06:16:44 PM 41.6739 -87.7556 189° South 283 326 8,200  Level Chicago Center
Wed 06:17:00 PM 41.3400 -88.5443 194° South  Level Estimated
Wed 06:17:46 PM 41.6472 -87.8511 250° West 277 319 11,100  Level Chicago Center
Wed 06:18:48 PM 41.5953 -87.9339 230° Southwest 298 343 13,400 1,645 Climbing Chicago Center
Wed 06:19:50 PM 41.5314 -88.0150 224° Southwest 315 362 14,500 1,887 Climbing Chicago Center
Wed 06:20:52 PM 41.4433 -88.1300 224° Southwest 385 443 17,300 2,226 Climbing Chicago Center
Wed 06:21:54 PM 41.3556 -88.2039 212° Southwest 398 458 19,100 1,645 Climbing Chicago Center
Wed 06:22:56 PM 41.2508 -88.2506 199° South 402 463 20,700 1,887 Climbing Chicago Center
Wed 06:23:58 PM 41.1200 -88.3086 198° South 415 478 23,000 1,742 Climbing Chicago Center
Wed 06:25:00 PM 41.0069 -88.3600 199° South 427 491 24,300 1,597 Climbing Chicago Center
Wed 06:26:02 PM 40.8925 -88.4103 198° South 435 501 26,300 1,694 Climbing Chicago Center
Wed 06:27:04 PM 40.7919 -88.4908 211° Southwest 431 496 27,800 1,392 Climbing Chicago Center
Wed 06:28:07 PM 40.7039 -88.5983 223° Southwest 431 496 29,200 1,008 Climbing Chicago Center
Wed 06:29:09 PM 40.5906 -88.7142 218° Southwest 432 497 29,900 387 Climbing Chicago Center
Wed 06:30:11 PM 40.4964 -88.8142 219° Southwest 437 503 30,000 48 Climbing Chicago Center
Wed 06:31:13 PM 40.3969 -88.9164 218° Southwest 440 506 30,000  Level Chicago Center
Wed 06:32:15 PM 40.3011 -89.0161 218° Southwest 437 503 30,000 97 Level Chicago Center
Wed 06:33:17 PM 40.2056 -89.1144 218° Southwest 436 502 30,200 532 Climbing Chicago Center
Wed 06:34:19 PM 40.1097 -89.2139 218° Southwest 436 502 31,100 906 Climbing Chicago Center
Wed 06:35:03 PM 40.0311 -89.2961 219° Southwest 440 506 31,800 509 Climbing Kansas City Center
Wed 06:36:05 PM 39.9342 -89.3975 219° Southwest 443 510 32,000 96 Climbing Kansas City Center
Wed 06:37:08 PM 39.8383 -89.4969 219° Southwest 441 507 32,000 -48 Level Kansas City Center
Wed 06:38:10 PM 39.7456 -89.5928 218° Southwest 432 497 31,900 -48 Descending Kansas City Center
Wed 06:39:12 PM 39.6497 -89.6908 218° Southwest 424 488 31,900 48 Level Kansas City Center
Wed 06:40:14 PM 39.5564 -89.7844 218° Southwest 425 489 32,000 48 Climbing Kansas City Center
Wed 06:41:16 PM 39.4442 -89.8978 218° Southwest 426 490 32,000  Level Kansas City Center
Wed 06:42:18 PM 39.3503 -89.9925 218° Southwest 428 493 32,000 -48 Level Kansas City Center
Wed 06:43:20 PM 39.2583 -90.0861 218° Southwest 425 489 31,900  Descending Kansas City Center
Wed 06:44:22 PM 39.1653 -90.1797 218° Southwest 425 489 32,000 48 Climbing Kansas City Center
Wed 06:45:24 PM 39.0711 -90.2733 218° Southwest 429 494 32,000  Level Kansas City Center
Wed 06:46:26 PM 38.9614 -90.3847 218° Southwest 425 489 32,000 145 Level Kansas City Center
Wed 06:47:28 PM 38.8775 -90.4678 218° Southwest 422 486 32,300 484 Climbing Kansas City Center
Wed 06:48:30 PM 38.7722 -90.5853 221° Southwest 418 481 33,000 581 Climbing Kansas City Center
Wed 06:49:32 PM 38.6856 -90.6839 222° Southwest 413 475 33,500 435 Climbing Kansas City Center
Wed 06:50:34 PM 38.5956 -90.7883 222° Southwest 420 483 33,900 242 Climbing Kansas City Center
Wed 06:51:36 PM 38.5100 -90.8856 222° Southwest 417 480 34,000 48 Climbing Kansas City Center
Wed 06:52:38 PM 38.4219 -90.9892 223° Southwest 425 489 34,000  Level Kansas City Center
Wed 06:53:40 PM 38.3344 -91.0886 222° Southwest 426 490 34,000  Level Kansas City Center
Wed 06:54:42 PM 38.2467 -91.1875 222° Southwest 424 488 34,000  Level Kansas City Center
Wed 06:55:44 PM 38.1403 -91.3058 221° Southwest 422 486 34,000  Level Kansas City Center
Wed 06:56:46 PM 38.0542 -91.4036 222° Southwest 417 480 34,000  Level Kansas City Center
Wed 06:57:48 PM 37.9672 -91.5042 222° Southwest 419 482 34,000 -48 Level Kansas City Center
Wed 06:58:50 PM 37.8764 -91.6042 221° Southwest 426 490 33,900  Descending Kansas City Center
Wed 06:59:52 PM 37.7894 -91.7022 222° Southwest 420 483 34,000 48 Climbing Kansas City Center
Wed 07:00:54 PM 37.7022 -91.7997 222° Southwest 417 480 34,000  Level Kansas City Center
Wed 07:01:56 PM 37.6136 -91.8986 221° Southwest 420 483 34,000  Level Kansas City Center
Wed 07:02:58 PM 37.5261 -91.9956 221° Southwest 417 480 34,000 -48 Level Kansas City Center
Wed 07:04:00 PM 37.4219 -92.1103 221° Southwest 413 475 33,900  Descending Kansas City Center
Wed 07:05:02 PM 37.3372 -92.2028 221° Southwest 406 467 34,000 48 Climbing Kansas City Center
Wed 07:06:05 PM 37.2519 -92.2947 221° Southwest 403 464 34,000 -48 Level Kansas City Center
Wed 07:07:07 PM 37.1658 -92.3892 221° Southwest 405 466 33,900  Descending Kansas City Center
Wed 07:08:09 PM 37.0775 -92.4856 221° Southwest 413 475 34,000 48 Climbing Kansas City Center
Wed 07:09:11 PM 36.9906 -92.5811 221° Southwest 415 478 34,000 -48 Level Kansas City Center
Wed 07:10:13 PM 36.9028 -92.6739 220° Southwest 414 476 33,900 -48 Descending Kansas City Center
Wed 07:11:15 PM 36.7967 -92.7889 221° Southwest 418 481 33,900 48 Level Kansas City Center
Wed 07:12:17 PM 36.7078 -92.8819 220° Southwest 418 481 34,000 48 Climbing Kansas City Center
Wed 07:13:19 PM 36.6208 -92.9775 221° Southwest 416 479 34,000 -48 Level Kansas City Center
Wed 07:14:21 PM 36.5386 -93.0650 221° Southwest 417 480 33,900  Descending Kansas City Center
Wed 07:15:23 PM 36.4522 -93.1589 221° Southwest 415 478 34,000 48 Climbing Kansas City Center
Wed 07:16:25 PM 36.3450 -93.2731 221° Southwest 422 486 34,000  Level Kansas City Center
Wed 07:17:27 PM 36.2567 -93.3667 221° Southwest 421 484 34,000  Level Kansas City Center
Wed 07:18:29 PM 36.1692 -93.4589 220° Southwest 417 480 34,000  Level Kansas City Center
Wed 07:19:31 PM 36.0819 -93.5511 221° Southwest 415 478 34,000 -48 Level Kansas City Center
Wed 07:20:33 PM 35.9953 -93.6428 221° Southwest 414 476 33,900  Descending Kansas City Center
Wed 07:21:44 PM 35.8850 -93.7569 220° Southwest 420 483 34,000 46 Climbing Memphis Center
Wed 07:22:44 PM 35.7969 -93.8506 221° Southwest 420 483 34,000  Level Memphis Center
Wed 07:23:44 PM 35.7067 -93.9439 220° Southwest 420 483 34,000  Level Memphis Center
Wed 07:24:44 PM 35.6186 -94.0344 220° Southwest 420 483 34,000  Level Memphis Center
Wed 07:25:44 PM 35.5283 -94.1250 219° Southwest 420 483 34,000  Level Memphis Center
Wed 07:26:44 PM 35.4400 -94.2178 221° Southwest 425 489 34,000  Level Memphis Center
Wed 07:27:44 PM 35.3475 -94.3053 218° Southwest 425 489 34,000  Level Memphis Center
Wed 07:28:44 PM 35.2450 -94.3792 210° Southwest 430 495 34,000  Level Memphis Center
Wed 07:29:44 PM 35.1422 -94.4581 212° Southwest 436 502 34,000  Level Memphis Center
Wed 07:31:37 PM 34.9556 -94.6017 212° Southwest 424 488 34,000  Level Fort Worth Center
Wed 07:32:37 PM 34.8531 -94.6833 213° Southwest 424 488 34,000  Level Fort Worth Center
Wed 07:33:37 PM 34.7503 -94.7600 212° Southwest 429 494 34,000  Level Fort Worth Center
Wed 07:34:37 PM 34.6478 -94.8364 212° Southwest 434 499 34,000 -50 Level Fort Worth Center
Wed 07:35:37 PM 34.5428 -94.9153 212° Southwest 434 499 33,900  Descending Fort Worth Center
Wed 07:36:37 PM 34.4381 -94.9936 212° Southwest 441 507 34,000 50 Climbing Fort Worth Center
Wed 07:37:37 PM 34.3331 -95.0747 213° Southwest 446 513 34,000  Level Fort Worth Center
Wed 07:38:37 PM 34.2322 -95.1478 211° Southwest 446 513 34,000  Level Fort Worth Center
Wed 07:39:37 PM 34.1272 -95.2256 212° Southwest 446 513 34,000 -50 Level Fort Worth Center
Wed 07:40:37 PM 34.0242 -95.3033 212° Southwest 446 513 33,900  Descending Fort Worth Center
Wed 07:41:37 PM 33.9086 -95.3889 212° Southwest 446 513 34,000 50 Climbing Fort Worth Center
Wed 07:42:37 PM 33.8014 -95.4664 211° Southwest 446 513 34,000 -50 Level Fort Worth Center
Wed 07:43:37 PM 33.6983 -95.5408 211° Southwest 446 513 33,900  Descending Fort Worth Center
Wed 07:44:37 PM 33.6117 -95.6078 213° Southwest 446 513 34,000  Climbing Fort Worth Center
Wed 07:45:37 PM 33.5042 -95.6822 210° Southwest 441 507 33,900  Descending Fort Worth Center
Wed 07:46:37 PM 33.3986 -95.7564 210° Southwest 441 507 34,000  Climbing Fort Worth Center
Wed 07:47:37 PM 33.2953 -95.8303 211° Southwest 441 507 33,900 -50 Descending Fort Worth Center
Wed 07:48:37 PM 33.1875 -95.9067 211° Southwest 441 507 33,900  Level Fort Worth Center
Wed 07:49:37 PM 33.0861 -95.9853 213° Southwest 441 507 33,900 50 Level Fort Worth Center
Wed 07:50:37 PM 32.9806 -96.0589 210° Southwest 441 507 34,000 50 Climbing Fort Worth Center
Wed 07:51:37 PM 32.8769 -96.1319 211° Southwest 441 507 34,000 -50 Level Fort Worth Center
Wed 07:52:37 PM 32.7714 -96.2078 211° Southwest 441 507 33,900 -50 Descending Fort Worth Center
Wed 07:53:37 PM 32.6697 -96.2806 211° Southwest 441 507 33,900  Level Fort Worth Center
Wed 07:54:37 PM 32.5639 -96.3508 209° Southwest 441 507 33,900  Level Fort Worth Center
Wed 07:55:37 PM 32.4558 -96.4089 204° Southwest 435 501 33,900 50 Level Fort Worth Center
Wed 07:56:37 PM 32.3414 -96.4617 201° Southwest 435 501 34,000  Climbing Fort Worth Center
Wed 07:57:37 PM 32.2269 -96.5144 201° Southwest 435 501 33,900 -50 Descending Fort Worth Center
Wed 07:58:37 PM 32.1103 -96.5647 200° South 441 507 33,900  Level Fort Worth Center
Wed 07:59:37 PM 31.9936 -96.6197 202° Southwest 447 514 33,900 50 Level Fort Worth Center
Wed 08:00:37 PM 31.8833 -96.6719 202° Southwest 447 514 34,000 -50 Climbing Fort Worth Center
Wed 08:01:37 PM 31.7753 -96.7486 211° Southwest 447 514 33,800 -1,150 Descending Fort Worth Center
Wed 08:02:37 PM 31.6672 -96.8397 216° Southwest 447 514 31,700 -2,200 Descending Fort Worth Center
Wed 08:03:37 PM 31.5631 -96.9258 215° Southwest 454 522 29,400 -2,609 Descending Fort Worth Center
Wed 08:04:55 PM 31.4247 -97.0361 214° Southwest 465 535 25,700 -2,657 Descending Houston Center
Wed 08:05:57 PM 31.3208 -97.1203 215° Southwest 458 527 23,200 -2,952 Descending Houston Center
Wed 08:06:59 PM 31.2192 -97.1994 214° Southwest 442 509 19,600 -2,903 Descending Houston Center
Wed 08:08:01 PM 31.1097 -97.2481 201° Southwest 422 486 17,200 -2,177 Descending Houston Center
Wed 08:09:03 PM 31.0025 -97.2911 199° South 405 466 15,100 -2,032 Descending Houston Center
Wed 08:10:05 PM 30.8944 -97.3469 204° Southwest 388 447 13,000 -1,306 Descending Houston Center
Wed 08:11:07 PM 30.8008 -97.3892 201° Southwest 364 419 12,400 -774 Descending Houston Center
Wed 08:12:09 PM 30.7267 -97.4506 215° Southwest 329 379 11,400 -1,210 Descending Houston Center
Wed 08:13:11 PM 30.6608 -97.5131 219° Southwest 309 356 9,900 -1,403 Descending Houston Center
Wed 08:14:13 PM 30.5875 -97.5511 204° Southwest 291 335 8,500 -1,548 Descending Houston Center
Wed 08:15:15 PM 30.5033 -97.5975 205° Southwest 284 327 6,700 -1,597 Descending Houston Center
Wed 08:16:17 PM 30.4336 -97.6369 206° Southwest 279 321 5,200 -1,452 Descending Houston Center

Login

Don't have an account? Register now (free) for customized features, flight alerts, and more!